createdAt,value
2022-09-25T00:00:44.879Z,10.07
2022-09-25T00:03:12.897Z,11.27
2022-09-25T00:05:41.647Z,9.53
2022-09-25T00:08:09.158Z,9.87
2022-09-25T00:10:57.722Z,9.30
2022-09-25T00:13:24.869Z,9.30
2022-09-25T00:15:54.241Z,9.97
2022-09-25T00:18:39.906Z,10.23
2022-09-25T00:21:07.356Z,11.40
2022-09-25T00:23:34.649Z,10.50
2022-09-25T00:26:02.624Z,9.67
2022-09-25T00:28:31.965Z,12.10
2022-09-25T00:30:58.598Z,9.93
2022-09-25T00:33:25.074Z,11.00
2022-09-25T00:35:51.536Z,8.87
2022-09-25T00:38:18.196Z,8.80
2022-09-25T00:40:44.825Z,8.57
2022-09-25T00:43:15.629Z,9.70
2022-09-25T00:45:43.715Z,9.30
2022-09-25T00:48:14.043Z,13.10
2022-09-25T00:50:49.965Z,11.70
2022-09-25T00:53:22.732Z,12.30
2022-09-25T00:55:49.696Z,11.57
2022-09-25T00:58:21.092Z,13.03
2022-09-25T01:00:48.111Z,13.00
2022-09-25T01:03:15.296Z,12.10
2022-09-25T01:05:43.101Z,12.27
2022-09-25T01:08:12.767Z,12.40
2022-09-25T01:10:39.251Z,13.60
2022-09-25T01:13:06.413Z,12.63
2022-09-25T01:15:58.689Z,13.17
2022-09-25T01:18:44.934Z,13.90
2022-09-25T01:21:14.720Z,12.63
2022-09-25T01:24:06.475Z,13.57
2022-09-25T01:27:10.604Z,13.47
2022-09-25T01:29:40.578Z,10.63
2022-09-25T01:32:16.256Z,12.63
2022-09-25T01:34:56.959Z,12.40
2022-09-25T01:37:32.316Z,13.50
2022-09-25T01:40:25.279Z,13.93
2022-09-25T01:43:12.996Z,15.40
2022-09-25T01:46:11.494Z,14.43
2022-09-25T01:48:39.671Z,16.87
2022-09-25T01:51:16.272Z,13.53
2022-09-25T01:53:47.991Z,12.17
2022-09-25T01:56:19.999Z,13.50
2022-09-25T01:58:51.340Z,13.10
2022-09-25T02:01:23.155Z,11.37
2022-09-25T02:04:03.626Z,12.60
2022-09-25T02:06:30.996Z,11.00
2022-09-25T02:09:22.176Z,11.97
2022-09-25T02:11:51.957Z,11.10
2022-09-25T02:14:21.886Z,12.60
2022-09-25T02:16:51.505Z,11.47
2022-09-25T02:19:36.837Z,11.47
2022-09-25T02:22:15.679Z,11.73
2022-09-25T02:24:52.257Z,11.23
2022-09-25T02:27:22.985Z,10.37
2022-09-25T02:29:49.887Z,9.80
2022-09-25T02:32:19.185Z,10.17
2022-09-25T02:34:45.674Z,14.00
2022-09-25T02:37:13.305Z,15.03
2022-09-25T02:39:40.380Z,11.83
2022-09-25T02:42:38.943Z,12.57
2022-09-25T02:45:24.261Z,11.20
2022-09-25T02:47:59.649Z,11.30
2022-09-25T02:51:11.394Z,12.57
2022-09-25T02:53:40.946Z,10.10
2022-09-25T02:56:30.052Z,9.47
2022-09-25T02:59:07.782Z,9.93
2022-09-25T03:01:36.958Z,10.60
2022-09-25T03:04:05.323Z,12.60
2022-09-25T03:06:32.017Z,14.50
2022-09-25T03:08:59.160Z,12.03
2022-09-25T03:11:29.775Z,11.80
2022-09-25T03:14:01.240Z,13.10
2022-09-25T03:16:35.618Z,10.63
2022-09-25T03:19:02.902Z,11.83
2022-09-25T03:21:29.461Z,12.20
2022-09-25T03:23:58.584Z,13.43
2022-09-25T03:26:27.291Z,11.47
2022-09-25T03:28:54.398Z,12.03
2022-09-25T03:31:21.296Z,11.30
2022-09-25T03:33:47.997Z,10.50
2022-09-25T03:36:20.680Z,10.60
2022-09-25T03:38:50.422Z,10.23
2022-09-25T03:41:21.696Z,10.03
2022-09-25T03:43:51.935Z,11.67
2022-09-25T03:46:21.809Z,10.30
2022-09-25T03:48:48.580Z,16.70
2022-09-25T03:51:15.174Z,15.20
2022-09-25T03:53:41.790Z,13.67
2022-09-25T03:56:13.533Z,10.20
2022-09-25T03:58:40.556Z,9.90
2022-09-25T04:01:07.274Z,11.73
2022-09-25T04:03:34.528Z,10.20
2022-09-25T04:06:04.883Z,10.90
2022-09-25T04:08:32.787Z,11.60
2022-09-25T04:10:59.681Z,11.73
2022-09-25T04:13:30.015Z,11.77
2022-09-25T04:15:58.301Z,11.90
2022-09-25T04:18:25.927Z,11.73
2022-09-25T04:20:52.427Z,10.90
2022-09-25T04:23:19.381Z,11.13
2022-09-25T04:25:46.004Z,12.33
2022-09-25T04:28:12.599Z,11.23
2022-09-25T04:30:39.029Z,10.60
2022-09-25T04:33:24.150Z,10.20
2022-09-25T04:35:50.624Z,8.83
2022-09-25T04:38:17.660Z,9.70
2022-09-25T04:40:45.831Z,11.10
2022-09-25T04:43:12.438Z,10.07
2022-09-25T04:45:39.002Z,12.33
2022-09-25T04:48:05.753Z,9.60
2022-09-25T04:50:33.261Z,10.70
2022-09-25T04:53:00.268Z,10.97
2022-09-25T04:55:27.516Z,16.03
2022-09-25T04:57:58.686Z,18.53
2022-09-25T05:00:31.300Z,16.10
2022-09-25T05:02:58.688Z,13.03
2022-09-25T05:05:28.176Z,11.30
2022-09-25T05:07:56.214Z,17.73
2022-09-25T05:10:24.327Z,15.37
2022-09-25T05:12:55.783Z,13.30
2022-09-25T05:15:22.867Z,11.90
2022-09-25T05:17:49.503Z,13.33
2022-09-25T05:20:17.272Z,14.03
2022-09-25T05:22:44.239Z,12.60
2022-09-25T05:25:10.726Z,11.33
2022-09-25T05:27:37.431Z,9.67
2022-09-25T05:30:04.256Z,9.97
2022-09-25T05:32:31.178Z,11.27
2022-09-25T05:34:57.824Z,9.77
2022-09-25T05:37:24.525Z,10.53
2022-09-25T05:39:50.946Z,10.57
2022-09-25T05:42:19.560Z,11.00
2022-09-25T05:44:46.466Z,10.33
2022-09-25T05:47:13.005Z,9.57
2022-09-25T05:49:39.495Z,9.17
2022-09-25T05:52:06.286Z,8.47
2022-09-25T05:54:32.696Z,7.90
2022-09-25T05:56:59.254Z,9.07
2022-09-25T05:59:25.713Z,9.03
2022-09-25T06:01:52.508Z,9.77
2022-09-25T06:04:19.304Z,7.70
2022-09-25T06:06:45.795Z,8.93
2022-09-25T06:09:12.297Z,8.33
2022-09-25T06:11:40.736Z,9.13
2022-09-25T06:14:07.348Z,8.27
2022-09-25T06:16:34.295Z,9.93
2022-09-25T06:19:00.963Z,9.50
2022-09-25T06:21:27.419Z,10.40
2022-09-25T06:23:55.952Z,9.73
2022-09-25T06:26:23.211Z,8.87
2022-09-25T06:28:49.701Z,11.40
2022-09-25T06:31:16.164Z,13.30
2022-09-25T06:33:43.877Z,11.53
2022-09-25T06:36:10.309Z,9.87
2022-09-25T06:38:36.952Z,10.20
2022-09-25T06:41:03.467Z,9.80
2022-09-25T06:43:30.360Z,9.93
2022-09-25T06:46:00.116Z,8.97
2022-09-25T06:48:26.696Z,9.00
2022-09-25T06:50:55.313Z,8.50
2022-09-25T06:53:23.813Z,8.90
2022-09-25T06:55:50.738Z,8.50
2022-09-25T06:58:20.548Z,8.47
2022-09-25T07:00:51.761Z,8.40
2022-09-25T07:03:37.174Z,8.90
2022-09-25T07:06:04.916Z,9.13
2022-09-25T07:08:31.367Z,9.63
2022-09-25T07:10:58.595Z,9.50
2022-09-25T07:13:27.597Z,8.00
2022-09-25T07:16:02.647Z,7.57
2022-09-25T07:18:29.695Z,7.70
2022-09-25T07:21:01.295Z,8.90
2022-09-25T07:23:28.811Z,9.80
2022-09-25T07:25:55.697Z,9.13
2022-09-25T07:28:22.183Z,7.80
2022-09-25T07:30:49.650Z,8.30
2022-09-25T07:33:16.736Z,8.00
2022-09-25T07:35:43.288Z,8.20
2022-09-25T07:38:10.060Z,8.33
2022-09-25T07:40:36.600Z,8.10
2022-09-25T07:43:04.590Z,8.20
2022-09-25T07:45:31.853Z,8.50
2022-09-25T07:48:02.216Z,8.20
2022-09-25T07:50:29.744Z,9.23
2022-09-25T07:52:56.477Z,8.90
2022-09-25T07:55:23.471Z,9.73
2022-09-25T07:57:51.912Z,9.90
2022-09-25T08:00:18.814Z,10.50
2022-09-25T08:02:45.322Z,9.33
2022-09-25T08:05:11.938Z,9.97
2022-09-25T08:07:38.607Z,10.90
2022-09-25T08:10:05.617Z,12.00
2022-09-25T08:12:32.265Z,10.93
2022-09-25T08:14:58.701Z,11.53
2022-09-25T08:17:31.398Z,11.10
2022-09-25T08:19:58.360Z,11.50
2022-09-25T08:22:24.933Z,11.60
2022-09-25T08:24:51.592Z,11.50
2022-09-25T08:27:18.514Z,11.47
2022-09-25T08:29:45.261Z,12.17
2022-09-25T08:32:12.123Z,12.70
2022-09-25T08:34:41.348Z,12.20
2022-09-25T08:37:09.720Z,12.27
2022-09-25T08:39:36.636Z,13.13
2022-09-25T08:42:03.506Z,13.50
2022-09-25T08:44:56.916Z,11.80
2022-09-25T08:47:47.856Z,12.10
2022-09-25T08:50:18.889Z,12.13
2022-09-25T08:52:48.409Z,12.80
2022-09-25T08:55:47.338Z,11.93
2022-09-25T08:58:20.198Z,11.47
2022-09-25T09:00:46.903Z,11.77
2022-09-25T09:03:14.843Z,12.17
2022-09-25T09:05:42.470Z,11.03
2022-09-25T09:08:20.589Z,10.50
2022-09-25T09:10:53.377Z,11.00
2022-09-25T09:13:36.741Z,9.90
2022-09-25T09:16:09.275Z,10.50
2022-09-25T09:18:40.987Z,9.30
2022-09-25T09:21:20.493Z,12.50
2022-09-25T09:24:06.152Z,9.63
2022-09-25T09:26:32.589Z,8.57
2022-09-25T09:29:05.213Z,9.10
2022-09-25T09:31:31.856Z,8.73
2022-09-25T09:34:08.729Z,9.60
2022-09-25T09:36:46.611Z,10.53
2022-09-25T09:39:57.124Z,10.40
2022-09-25T09:42:49.670Z,11.00
2022-09-25T09:45:22.773Z,9.20
2022-09-25T09:47:59.257Z,9.70
2022-09-25T09:50:52.922Z,11.30
2022-09-25T09:53:24.053Z,11.80
2022-09-25T09:55:53.201Z,10.10
2022-09-25T09:58:40.018Z,10.73
2022-09-25T10:01:22.487Z,10.27
2022-09-25T10:04:02.160Z,11.50
2022-09-25T10:06:30.296Z,9.20
2022-09-25T10:08:56.741Z,10.60
2022-09-25T10:11:24.865Z,9.73
2022-09-25T10:13:51.788Z,9.30
2022-09-25T10:16:20.911Z,10.93
2022-09-25T10:18:53.453Z,10.13
2022-09-25T10:21:21.861Z,10.70
2022-09-25T10:23:53.495Z,11.63
2022-09-25T10:26:38.003Z,11.00
2022-09-25T10:29:27.793Z,10.67
2022-09-25T10:31:59.069Z,9.83
2022-09-25T10:34:27.525Z,10.27
2022-09-25T10:36:54.403Z,9.67
2022-09-25T10:39:44.874Z,8.93
2022-09-25T10:42:33.262Z,11.07
2022-09-25T10:44:59.977Z,10.23
2022-09-25T10:47:48.698Z,9.70
2022-09-25T10:50:22.388Z,10.77
2022-09-25T10:52:50.112Z,9.23
2022-09-25T10:55:28.958Z,10.30
2022-09-25T10:58:12.911Z,11.10
2022-09-25T11:00:42.570Z,11.23
2022-09-25T11:03:20.358Z,11.70
2022-09-25T11:06:02.523Z,10.77
2022-09-25T11:08:30.371Z,10.80
2022-09-25T11:11:01.511Z,9.83
2022-09-25T11:13:38.155Z,10.33
2022-09-25T11:16:10.461Z,10.73
2022-09-25T11:18:43.394Z,11.23
2022-09-25T11:21:22.266Z,11.47
2022-09-25T11:24:25.996Z,10.90
2022-09-25T11:27:12.731Z,10.80
2022-09-25T11:29:47.167Z,9.57
2022-09-25T11:32:26.713Z,10.93
2022-09-25T11:35:30.953Z,10.30
2022-09-25T11:38:14.931Z,10.53
2022-09-25T11:41:12.986Z,10.17
2022-09-25T11:43:58.254Z,9.30
2022-09-25T11:46:31.388Z,10.50
2022-09-25T11:49:16.301Z,10.87
2022-09-25T11:51:58.365Z,11.00
2022-09-25T11:55:09.032Z,13.00
2022-09-25T11:57:44.575Z,14.13
2022-09-25T12:00:18.140Z,15.23
2022-09-25T12:03:10.534Z,13.63
2022-09-25T12:06:15.957Z,12.90
2022-09-25T12:09:13.703Z,12.90
2022-09-25T12:11:52.915Z,14.00
2022-09-25T12:14:27.796Z,13.07
2022-09-25T12:17:15.946Z,14.40
2022-09-25T12:19:58.059Z,13.50
2022-09-25T12:23:00.452Z,12.87
2022-09-25T12:25:36.031Z,14.10
2022-09-25T12:28:08.957Z,12.00
2022-09-25T12:30:57.266Z,14.20
2022-09-25T12:33:49.093Z,13.63
2022-09-25T12:36:18.012Z,13.87
2022-09-25T12:38:52.289Z,14.40
2022-09-25T12:41:40.712Z,14.50
2022-09-25T12:44:27.134Z,14.70
2022-09-25T12:47:02.010Z,17.13
2022-09-25T12:49:37.811Z,15.87
2022-09-25T12:52:25.365Z,15.37
2022-09-25T12:55:06.653Z,17.73
2022-09-25T12:57:42.697Z,18.17
2022-09-25T13:00:29.040Z,17.00
2022-09-25T13:03:31.416Z,18.40
2022-09-25T13:06:24.642Z,19.13
2022-09-25T13:09:02.559Z,17.50
2022-09-25T13:11:56.088Z,17.60
2022-09-25T13:14:39.923Z,17.00
2022-09-25T13:17:12.611Z,19.80
2022-09-25T13:19:39.273Z,17.97
2022-09-25T13:22:25.013Z,20.97
2022-09-25T13:24:52.422Z,18.87
2022-09-25T13:27:22.550Z,18.30
2022-09-25T13:29:55.763Z,17.20
2022-09-25T13:32:24.393Z,19.17
2022-09-25T13:34:57.032Z,18.33
2022-09-25T13:37:33.271Z,17.63
2022-09-25T13:40:19.957Z,19.90
2022-09-25T13:42:47.653Z,18.17
2022-09-25T13:45:33.498Z,19.17
2022-09-25T13:48:10.852Z,18.20
2022-09-25T13:50:40.169Z,19.20
2022-09-25T13:53:18.918Z,19.00
2022-09-25T13:55:48.186Z,20.23
2022-09-25T13:58:22.795Z,18.60
2022-09-25T14:01:02.953Z,19.63
2022-09-25T14:03:45.736Z,16.43
2022-09-25T14:06:25.529Z,17.50
2022-09-25T14:08:55.249Z,18.67
2022-09-25T14:11:34.072Z,19.60
2022-09-25T14:14:02.960Z,18.60
2022-09-25T14:16:56.405Z,18.00
2022-09-25T14:19:32.052Z,19.70
2022-09-25T14:22:00.853Z,18.50
2022-09-25T14:24:31.679Z,19.43
2022-09-25T14:27:01.139Z,42.00
2022-09-25T14:29:40.078Z,30.17
2022-09-25T14:32:50.674Z,22.70
2022-09-25T14:35:28.753Z,22.37
2022-09-25T14:38:04.115Z,64.47
2022-09-25T14:40:38.125Z,19.53
2022-09-25T14:43:34.959Z,24.30
2022-09-25T14:46:04.400Z,44.97
2022-09-25T14:48:42.477Z,24.43
2022-09-25T14:51:13.126Z,29.73
2022-09-25T14:53:46.493Z,25.40
2022-09-25T14:56:14.744Z,55.13
2022-09-25T14:58:46.060Z,28.63
2022-09-25T15:01:29.724Z,55.27
2022-09-25T15:03:59.206Z,24.40
2022-09-25T15:06:28.914Z,20.80
2022-09-25T15:08:55.997Z,18.80
2022-09-25T15:11:27.040Z,20.03
2022-09-25T15:13:54.546Z,22.97
2022-09-25T15:16:42.372Z,29.10
2022-09-25T15:19:20.620Z,26.73
2022-09-25T15:21:47.692Z,23.47
2022-09-25T15:24:21.004Z,20.53
2022-09-25T15:26:56.301Z,37.60
2022-09-25T15:29:23.866Z,27.07
2022-09-25T15:31:51.427Z,42.43
2022-09-25T15:34:27.349Z,23.70
2022-09-25T15:36:54.110Z,19.93
2022-09-25T15:39:25.995Z,16.63
2022-09-25T15:41:52.559Z,25.10
2022-09-25T15:44:26.532Z,27.20
2022-09-25T15:46:57.484Z,22.40
2022-09-25T15:49:40.717Z,30.00
2022-09-25T15:52:23.363Z,25.87
2022-09-25T15:54:49.990Z,14.10
2022-09-25T15:57:23.413Z,41.00
2022-09-25T16:00:09.108Z,20.93
2022-09-25T16:03:02.024Z,17.20
2022-09-25T16:05:33.405Z,37.47
2022-09-25T16:08:24.721Z,13.23
2022-09-25T16:11:17.755Z,9.87
2022-09-25T16:13:51.246Z,11.37
2022-09-25T16:16:20.997Z,9.63
2022-09-25T16:18:47.617Z,11.13
2022-09-25T16:21:31.821Z,11.10
2022-09-25T16:24:01.269Z,11.40
2022-09-25T16:26:39.723Z,12.60
2022-09-25T16:29:23.820Z,12.03
2022-09-25T16:31:54.201Z,21.53
2022-09-25T16:34:27.476Z,13.50
2022-09-25T16:36:58.180Z,15.10
2022-09-25T16:39:27.611Z,28.60
2022-09-25T16:41:54.586Z,28.60
2022-09-25T16:44:27.952Z,18.03
2022-09-25T16:46:57.361Z,19.47
2022-09-25T16:49:24.921Z,12.77
2022-09-25T16:51:53.374Z,11.73
2022-09-25T16:54:21.791Z,9.80
2022-09-25T16:56:48.844Z,11.60
2022-09-25T16:59:18.437Z,12.07
2022-09-25T17:01:47.037Z,10.27
2022-09-25T17:04:15.694Z,8.00
2022-09-25T17:06:45.851Z,8.30
2022-09-25T17:09:13.707Z,7.50
2022-09-25T17:11:42.292Z,8.97
2022-09-25T17:14:21.113Z,9.03
2022-09-25T17:16:47.595Z,8.00
2022-09-25T17:19:16.456Z,8.83
2022-09-25T17:21:42.955Z,9.47
2022-09-25T17:24:13.327Z,9.40
2022-09-25T17:26:40.279Z,9.77
2022-09-25T17:29:07.168Z,11.90
2022-09-25T17:31:33.772Z,8.93
2022-09-25T17:34:00.279Z,10.77
2022-09-25T17:36:26.972Z,11.53
2022-09-25T17:38:53.398Z,11.80
2022-09-25T17:41:31.328Z,13.77
2022-09-25T17:43:58.631Z,13.63
2022-09-25T17:46:26.570Z,12.13
2022-09-25T17:48:54.720Z,13.20
2022-09-25T17:51:26.384Z,13.00
2022-09-25T17:53:53.911Z,11.93
2022-09-25T17:56:20.525Z,12.93
2022-09-25T17:58:47.284Z,12.27
2022-09-25T18:01:22.026Z,11.80
2022-09-25T18:03:53.212Z,11.77
2022-09-25T18:06:19.943Z,11.47
2022-09-25T18:08:47.973Z,10.27
2022-09-25T18:11:15.594Z,11.10
2022-09-25T18:13:42.258Z,9.50
2022-09-25T18:16:17.621Z,10.60
2022-09-25T18:19:03.354Z,10.53
2022-09-25T18:21:48.760Z,9.30
2022-09-25T18:24:15.311Z,7.50
2022-09-25T18:26:42.668Z,8.33
2022-09-25T18:29:13.277Z,9.93
2022-09-25T18:31:40.060Z,10.60
2022-09-25T18:34:06.847Z,10.70
2022-09-25T18:36:33.396Z,10.60
2022-09-25T18:38:59.943Z,7.70
2022-09-25T18:41:27.193Z,8.23
2022-09-25T18:43:54.439Z,8.00
2022-09-25T18:46:21.415Z,8.90
2022-09-25T18:48:48.187Z,9.47
2022-09-25T18:51:15.616Z,8.07
2022-09-25T18:53:42.162Z,12.13
2022-09-25T18:56:09.079Z,9.90
2022-09-25T18:58:35.666Z,10.03
2022-09-25T19:01:02.225Z,8.83
2022-09-25T19:03:29.450Z,7.90
2022-09-25T19:06:02.855Z,8.43
2022-09-25T19:08:32.937Z,8.63
2022-09-25T19:11:00.457Z,9.00
2022-09-25T19:13:27.343Z,9.07
2022-09-25T19:15:54.822Z,7.57
2022-09-25T19:18:21.470Z,9.07
2022-09-25T19:20:55.966Z,6.93
2022-09-25T19:23:23.961Z,8.87
2022-09-25T19:25:59.170Z,6.30
2022-09-25T19:28:26.667Z,5.80
2022-09-25T19:31:07.828Z,7.00
2022-09-25T19:33:37.636Z,6.20
2022-09-25T19:36:08.031Z,5.20
2022-09-25T19:38:36.475Z,4.40
2022-09-25T19:41:04.113Z,5.20
2022-09-25T19:43:34.544Z,4.47
2022-09-25T19:46:02.136Z,5.93
2022-09-25T19:48:28.688Z,5.90
2022-09-25T19:50:55.152Z,7.87
2022-09-25T19:53:22.322Z,8.10
2022-09-25T19:55:53.407Z,6.90
2022-09-25T19:58:23.640Z,5.70
2022-09-25T20:00:51.030Z,8.13
2022-09-25T20:03:18.145Z,6.07
2022-09-25T20:05:44.739Z,4.00
2022-09-25T20:08:11.611Z,4.60
2022-09-25T20:10:38.431Z,4.80
2022-09-25T20:13:06.142Z,5.23
2022-09-25T20:15:33.840Z,7.57
2022-09-25T20:18:00.691Z,6.20
2022-09-25T20:20:29.318Z,7.60
2022-09-25T20:22:56.774Z,6.77
2022-09-25T20:25:24.372Z,8.70
2022-09-25T20:27:52.311Z,6.68
2022-09-25T20:30:19.363Z,7.43
2022-09-25T20:32:46.224Z,6.40
2022-09-25T20:35:12.939Z,6.70
2022-09-25T20:37:39.561Z,4.20
2022-09-25T20:40:06.504Z,4.40
2022-09-25T20:42:33.933Z,3.70
2022-09-25T20:45:00.518Z,5.43
2022-09-25T20:47:33.596Z,4.93
2022-09-25T20:50:00.890Z,3.77
2022-09-25T20:52:28.150Z,4.30
2022-09-25T20:54:56.384Z,3.20
2022-09-25T20:57:23.145Z,4.03
2022-09-25T20:59:49.888Z,4.50
2022-09-25T21:02:16.567Z,4.30
2022-09-25T21:04:44.955Z,4.53
2022-09-25T21:07:16.614Z,4.20
2022-09-25T21:09:43.658Z,3.80
2022-09-25T21:12:10.155Z,5.20
2022-09-25T21:14:37.207Z,4.43
2022-09-25T21:17:03.814Z,4.10
2022-09-25T21:19:30.626Z,4.63
2022-09-25T21:21:57.101Z,3.77
2022-09-25T21:24:23.654Z,4.17
2022-09-25T21:26:50.313Z,3.20
2022-09-25T21:29:17.082Z,3.40
2022-09-25T21:31:49.334Z,3.10
2022-09-25T21:34:17.270Z,4.20
2022-09-25T21:36:43.826Z,3.43
2022-09-25T21:39:10.909Z,3.53
2022-09-25T21:41:37.762Z,3.00
2022-09-25T21:44:07.727Z,3.50
2022-09-25T21:46:34.865Z,3.83
2022-09-25T21:49:04.480Z,4.33
2022-09-25T21:51:36.577Z,4.20
2022-09-25T21:54:03.821Z,3.87
2022-09-25T21:56:31.524Z,3.53
2022-09-25T21:59:00.221Z,4.27
2022-09-25T22:01:30.575Z,4.40
2022-09-25T22:03:58.062Z,3.70
2022-09-25T22:06:45.468Z,3.47
2022-09-25T22:09:20.531Z,4.20
2022-09-25T22:11:47.925Z,4.47
2022-09-25T22:14:16.538Z,4.50
2022-09-25T22:16:45.734Z,6.07
2022-09-25T22:19:14.800Z,3.93
2022-09-25T22:21:42.569Z,2.73
2022-09-25T22:24:09.628Z,3.50
2022-09-25T22:26:38.616Z,3.33
2022-09-25T22:29:06.271Z,3.20
2022-09-25T22:31:34.885Z,4.00
2022-09-25T22:34:06.828Z,3.03
2022-09-25T22:36:35.947Z,2.50
2022-09-25T22:39:04.109Z,2.97
2022-09-25T22:41:30.734Z,2.93
2022-09-25T22:44:00.558Z,3.10
2022-09-25T22:46:27.619Z,3.57
2022-09-25T22:48:54.183Z,4.00
2022-09-25T22:51:22.002Z,3.30
2022-09-25T22:53:49.415Z,3.67
2022-09-25T22:56:30.393Z,3.37
2022-09-25T22:59:02.130Z,3.30
2022-09-25T23:01:32.267Z,2.73
2022-09-25T23:04:01.126Z,2.83
2022-09-25T23:06:29.439Z,3.27
2022-09-25T23:09:01.699Z,3.50
2022-09-25T23:11:29.229Z,3.70
2022-09-25T23:14:05.170Z,3.70
2022-09-25T23:16:32.665Z,3.60
2022-09-25T23:19:00.009Z,3.57
2022-09-25T23:21:27.754Z,3.20
2022-09-25T23:24:02.787Z,3.40
2022-09-25T23:26:29.881Z,2.90
2022-09-25T23:28:58.095Z,3.20
2022-09-25T23:31:25.825Z,3.23
2022-09-25T23:33:52.396Z,3.10
2022-09-25T23:36:21.148Z,2.57
2022-09-25T23:38:48.697Z,3.53
2022-09-25T23:41:21.199Z,2.80
2022-09-25T23:43:49.013Z,3.43
2022-09-25T23:46:17.323Z,3.70
2022-09-25T23:48:45.174Z,3.97
2022-09-25T23:51:12.909Z,4.17
2022-09-25T23:53:40.813Z,3.67
2022-09-25T23:56:13.507Z,3.70
2022-09-25T23:58:40.262Z,4.10
